Decoded Metar for OISY ( in _UNIDENTIFIED) (IATA:N/A) | Meteo·Mobile Aviation Weather
aviador You're here:

OISY Decoded Metar

in _UNIDENTIFIED
Report Time2018-09-19 20:00:00
UTC Time2018-09-19 20:43:56
Flight Rules vfr VFR
WindCalm
Visibility9999 m
Phenomena:N/A
Clouds:Few 045 Hf
Expected CloudBase > 6,000 ft AGL from Temp-Dew spread
CeilingNone
Temp20°C
Dew Point05°C (38% RH)
AAT18.9°C
QNH1022 hPa
Raw Report
METAR OISY 192000Z 00000KT 9999 FEW045 20/05 Q1022=

Extra information for OISY:More info

Metar Taf Metar & Taf Last 4 Metars F.Rules Stats Wind Profile Meteogram Temp Stats Metar ALERT Operation Metar Decoded Social comments